Time;durP1;ratioP1;P1;durP2;ratioP2;P2;SDS_P1;SDS_P2;PMS_P1;PMS_P2;Temp;Humidity;BMP_temperature;BMP_pressure;BME280_temperature;BME280_humidity;BME280_pressure;Samples;Min_cycle;Max_cycle;Signal;HPM_P1;HPM_P2
2023/06/16 00:01:41;;;;;;;1999.90;999.90;;;15.30;55.00;;;;;;5037885;28;20030;-87
2023/06/16 00:04:08;;;;;;;1999.90;999.90;;;15.10;57.60;;;;;;5033888;28;20037;-87
2023/06/16 00:06:36;;;;;;;1999.90;999.90;;;14.90;60.00;;;;;;5056364;28;20029;-87
2023/06/16 00:09:02;;;;;;;1999.90;999.90;;;14.60;62.40;;;;;;5037809;28;20061;-88
2023/06/16 00:11:28;;;;;;;1999.90;999.90;;;14.40;63.60;;;;;;5036450;28;20025;-87
2023/06/16 00:13:55;;;;;;;1999.90;999.90;;;14.10;64.50;;;;;;5016123;28;20260;-88
2023/06/16 00:16:22;;;;;;;1999.90;999.90;;;14.00;65.40;;;;;;5033346;28;20029;-87
2023/06/16 00:18:52;;;;;;;1999.90;999.90;;;13.80;65.30;;;;;;5042295;28;20032;-87
2023/06/16 00:21:25;;;;;;;;;;;13.70;65.90;;;;;;5035083;28;20287;-87
2023/06/16 00:23:51;;;;;;;1999.90;999.90;;;13.60;66.80;;;;;;5032595;28;19917;-88
2023/06/16 00:26:17;;;;;;;1999.90;999.90;;;13.50;66.40;;;;;;5039815;28;20115;-87
2023/06/16 00:28:43;;;;;;;1999.90;999.90;;;13.50;65.60;;;;;;5039414;28;20595;-88
2023/06/16 00:31:09;;;;;;;1999.90;999.90;;;13.60;64.70;;;;;;5040095;28;20041;-87
2023/06/16 00:33:34;;;;;;;1999.90;999.90;;;13.60;63.00;;;;;;5042629;28;20044;-88
2023/06/16 00:36:00;;;;;;;1999.90;999.90;;;13.70;62.20;;;;;;5036727;28;20397;-87
2023/06/16 00:38:27;;;;;;;1999.90;999.90;;;13.70;61.60;;;;;;5040445;28;20408;-88
2023/06/16 00:40:52;;;;;;;1999.90;999.90;;;13.70;61.50;;;;;;5040573;28;20033;-87
2023/06/16 00:43:18;;;;;;;1999.90;999.90;;;13.70;62.00;;;;;;5034314;28;20538;-89
2023/06/16 00:45:44;;;;;;;1999.90;999.90;;;13.70;63.70;;;;;;5040007;28;20059;-87
2023/06/16 00:48:10;;;;;;;1999.90;999.90;;;13.50;64.90;;;;;;5035268;28;20139;-87
2023/06/16 00:50:36;;;;;;;1999.90;999.90;;;13.30;66.20;;;;;;5017795;28;20463;-89
2023/06/16 00:53:02;;;;;;;1999.90;999.90;;;13.20;66.70;;;;;;5021125;28;20026;-87
2023/06/16 00:55:29;;;;;;;1999.90;999.90;;;13.10;67.40;;;;;;5032869;28;20029;-88
2023/06/16 00:57:55;;;;;;;1999.90;999.90;;;13.00;67.50;;;;;;5034258;28;20550;-87
2023/06/16 01:00:21;;;;;;;1999.90;999.90;;;13.00;68.20;;;;;;5039764;28;20033;-88
2023/06/16 01:02:48;;;;;;;1999.90;999.90;;;12.80;68.60;;;;;;5053161;28;20044;-86
2023/06/16 01:05:17;;;;;;;1999.90;999.90;;;12.70;68.90;;;;;;5036540;28;20024;-87
2023/06/16 01:07:51;;;;;;;1999.90;999.90;;;12.60;69.20;;;;;;5015309;28;20041;-87
2023/06/16 01:10:16;;;;;;;1999.90;999.90;;;12.50;69.30;;;;;;5036230;28;20052;-88
2023/06/16 01:12:55;;;;;;;1999.90;999.90;;;12.40;69.40;;;;;;5037034;28;20033;-88
2023/06/16 01:15:24;;;;;;;1999.90;999.90;;;12.20;68.90;;;;;;5029562;28;20131;-87
2023/06/16 01:17:53;;;;;;;1999.90;999.90;;;12.40;68.00;;;;;;5049965;28;20091;-87
2023/06/16 01:20:52;;;;;;;1999.90;999.90;;;12.50;68.30;;;;;;5012332;28;20576;-87
2023/06/16 01:23:53;;;;;;;1999.90;999.90;;;12.60;68.00;;;;;;5039032;28;20370;-88
2023/06/16 01:26:22;;;;;;;677.38;415.92;;;12.70;67.40;;;;;;5028562;28;20037;-87
2023/06/16 01:28:49;;;;;;;1584.50;829.05;;;12.60;67.70;;;;;;5034316;28;20037;-88
2023/06/16 01:31:16;;;;;;;271.00;253.02;;;12.50;68.30;;;;;;5034350;28;20025;-88
2023/06/16 01:33:43;;;;;;;1553.57;800.25;;;12.50;68.40;;;;;;5032340;28;20079;-87
2023/06/16 01:36:09;;;;;;;1999.90;999.90;;;12.40;67.50;;;;;;5039306;28;20037;-88
2023/06/16 01:38:36;;;;;;;1999.90;999.90;;;12.40;67.60;;;;;;5019619;28;20037;-88
2023/06/16 01:41:03;;;;;;;1559.22;805.38;;;12.40;66.60;;;;;;5028341;28;20064;-87
2023/06/16 01:43:29;;;;;;;343.55;321.13;;;12.30;68.00;;;;;;5036137;28;20021;-87
2023/06/16 01:45:56;;;;;;;389.98;366.48;;;12.30;69.00;;;;;;5033489;28;20036;-86
2023/06/16 01:48:23;;;;;;;1581.10;825.97;;;12.10;68.70;;;;;;5028881;28;20024;-88
2023/06/16 01:50:49;;;;;;;341.92;321.23;;;12.20;68.00;;;;;;5032120;28;20029;-87
2023/06/16 01:53:16;;;;;;;385.90;363.23;;;12.10;68.80;;;;;;5033358;28;20045;-87
2023/06/16 01:55:52;;;;;;;375.60;353.65;;;12.00;69.00;;;;;;5015942;28;20489;-88
2023/06/16 01:58:20;;;;;;;469.83;444.98;;;11.90;69.80;;;;;;5036926;28;20423;-87
2023/06/16 02:01:04;;;;;;;413.27;390.95;;;11.70;70.20;;;;;;5028508;28;20140;-88
2023/06/16 02:03:41;;;;;;;437.02;414.48;;;11.70;70.50;;;;;;5035710;28;20026;-88
2023/06/16 02:06:14;;;;;;;446.40;423.60;;;11.60;70.70;;;;;;5034507;28;20392;-87
2023/06/16 02:08:43;;;;;;;427.40;405.70;;;11.50;70.90;;;;;;5033425;28;20026;-87
2023/06/16 02:11:09;;;;;;;425.67;404.45;;;11.60;71.30;;;;;;5034173;28;20025;-88
2023/06/16 02:13:36;;;;;;;461.65;439.35;;;11.60;71.00;;;;;;4998501;28;20568;-88
2023/06/16 02:16:02;;;;;;;452.75;430.63;;;11.60;70.90;;;;;;5019866;28;20036;-88
2023/06/16 02:18:28;;;;;;;443.52;421.52;;;11.70;71.10;;;;;;5032116;28;20038;-89
2023/06/16 02:20:56;;;;;;;453.65;431.35;;;11.60;70.70;;;;;;5014703;28;20053;-88
2023/06/16 02:23:22;;;;;;;445.23;423.80;;;11.60;70.80;;;;;;5019549;28;20594;-88
2023/06/16 02:25:47;;;;;;;448.77;426.83;;;11.60;70.20;;;;;;5034138;28;20037;-88
2023/06/16 02:28:13;;;;;;;468.58;445.65;;;11.60;70.20;;;;;;5037772;28;20835;-89
2023/06/16 02:30:39;;;;;;;465.85;443.75;;;11.60;70.40;;;;;;5018204;28;20520;-88
2023/06/16 02:33:04;;;;;;;473.42;451.33;;;11.60;70.10;;;;;;5035006;28;20516;-87
2023/06/16 02:35:30;;;;;;;467.80;445.42;;;11.50;70.60;;;;;;5038862;28;20044;-87
2023/06/16 02:37:56;;;;;;;523.28;498.20;;;11.50;70.40;;;;;;5013628;28;20525;-88
2023/06/16 02:40:21;;;;;;;492.55;469.65;;;11.40;71.00;;;;;;5045660;28;20033;-87
2023/06/16 02:42:48;;;;;;;518.53;493.17;;;11.40;71.40;;;;;;5038687;28;20116;-88
2023/06/16 02:45:14;;;;;;;502.60;478.95;;;11.40;72.00;;;;;;5039077;28;20049;-89
2023/06/16 02:47:40;;;;;;;546.25;520.45;;;11.40;72.20;;;;;;5041827;28;20029;-87
2023/06/16 02:50:08;;;;;;;510.85;487.40;;;11.40;71.80;;;;;;5035464;28;20033;-88
2023/06/16 02:52:33;;;;;;;497.45;474.55;;;11.40;71.70;;;;;;5041815;28;20044;-87
2023/06/16 02:55:00;;;;;;;503.70;480.92;;;11.40;71.70;;;;;;5038458;28;20481;-88
2023/06/16 02:57:26;;;;;;;495.63;473.75;;;11.20;72.50;;;;;;5032284;28;20117;-88
2023/06/16 02:59:51;;;;;;;477.92;457.42;;;11.10;73.10;;;;;;5042178;28;20128;-88
2023/06/16 03:02:17;;;;;;;499.02;477.08;;;11.00;73.40;;;;;;5039826;28;20068;-87
2023/06/16 03:04:43;;;;;;;453.05;433.75;;;11.00;72.90;;;;;;5035199;28;20032;-87
2023/06/16 03:07:09;;;;;;;477.70;457.40;;;11.00;73.30;;;;;;5022965;28;20033;-89
2023/06/16 03:09:35;;;;;;;460.80;441.10;;;11.00;74.60;;;;;;5034897;28;20508;-87
2023/06/16 03:12:01;;;;;;;443.40;424.75;;;11.10;73.20;;;;;;5044136;28;20060;-87
2023/06/16 03:14:27;;;;;;;451.20;432.35;;;11.10;74.10;;;;;;5037136;28;20055;-87
2023/06/16 03:16:53;;;;;;;464.08;444.48;;;11.00;74.00;;;;;;5033337;28;20037;-89
2023/06/16 03:19:19;;;;;;;453.08;434.02;;;11.20;73.50;;;;;;5049220;28;20037;-88
2023/06/16 03:21:45;;;;;;;458.58;438.63;;;11.30;73.00;;;;;;5039303;28;20110;-87
2023/06/16 03:24:18;;;;;;;463.95;444.02;;;11.40;72.10;;;;;;5035057;28;20040;-87
2023/06/16 03:26:44;;;;;;;461.17;441.58;;;11.50;71.50;;;;;;5038561;28;20037;-87
2023/06/16 03:29:12;;;;;;;458.67;439.27;;;11.50;71.40;;;;;;5034093;28;20049;-88
2023/06/16 03:31:38;;;;;;;458.75;439.80;;;11.60;72.60;;;;;;5041048;28;20053;-88
2023/06/16 03:34:03;;;;;;;423.77;406.05;;;11.60;73.30;;;;;;5039667;28;20083;-87
2023/06/16 03:36:35;;;;;;;460.70;441.05;;;11.70;72.70;;;;;;5035225;28;20447;-87
2023/06/16 03:39:03;;;;;;;433.52;415.38;;;11.70;71.40;;;;;;5041810;28;20047;-88
2023/06/16 03:41:28;;;;;;;402.23;385.55;;;11.80;71.10;;;;;;5034894;28;20053;-89
2023/06/16 03:43:54;;;;;;;437.95;418.77;;;11.90;70.80;;;;;;5038086;28;20052;-89
2023/06/16 03:46:20;;;;;;;435.10;416.75;;;11.90;70.70;;;;;;5033472;28;20068;-87
2023/06/16 03:48:45;;;;;;;439.98;421.63;;;12.00;71.30;;;;;;5035420;28;20514;-87
2023/06/16 03:51:11;;;;;;;433.90;415.67;;;12.10;72.70;;;;;;5022222;28;20036;-87
2023/06/16 03:53:37;;;;;;;396.70;380.33;;;12.00;73.10;;;;;;5022605;28;20079;-88
2023/06/16 03:56:03;;;;;;;407.42;390.13;;;12.00;73.80;;;;;;5033922;28;20064;-88
2023/06/16 03:58:29;;;;;;;405.08;388.00;;;12.10;72.60;;;;;;5023652;28;20029;-87
2023/06/16 04:00:56;;;;;;;393.35;377.10;;;12.10;71.10;;;;;;5036188;28;20397;-89
2023/06/16 04:03:25;;;;;;;339.17;325.73;;;12.10;71.60;;;;;;5038462;28;20099;-89
2023/06/16 04:05:52;;;;;;;284.90;273.67;;;12.00;74.70;;;;;;5036559;28;20809;-88
2023/06/16 04:08:18;;;;;;;318.52;305.75;;;12.00;74.20;;;;;;5035512;28;20025;-87
2023/06/16 04:10:44;;;;;;;305.75;293.75;;;12.10;73.30;;;;;;5045381;28;20037;-88
2023/06/16 04:13:10;;;;;;;336.83;323.92;;;12.10;72.40;;;;;;5038420;28;20079;-89
2023/06/16 04:15:35;;;;;;;327.17;314.38;;;12.10;71.50;;;;;;5033516;28;20120;-88
2023/06/16 04:18:01;;;;;;;328.60;315.65;;;12.10;71.70;;;;;;5037241;28;20036;-87
2023/06/16 04:20:27;;;;;;;347.48;333.42;;;12.10;72.30;;;;;;5030181;28;20125;-88
2023/06/16 04:22:53;;;;;;;344.17;330.02;;;12.10;71.30;;;;;;5036598;28;20128;-87
2023/06/16 04:25:18;;;;;;;301.85;289.92;;;12.00;71.80;;;;;;5036966;28;20433;-87
2023/06/16 04:27:46;;;;;;;283.83;272.73;;;12.00;74.40;;;;;;5032722;28;20396;-89
2023/06/16 04:30:12;;;;;;;245.82;236.48;;;12.10;73.80;;;;;;5042461;28;20076;-88
2023/06/16 04:32:37;;;;;;;278.92;267.92;;;12.20;73.80;;;;;;5034488;28;20037;-88
2023/06/16 04:35:07;;;;;;;256.52;246.82;;;12.30;74.20;;;;;;5014714;28;20048;-87
2023/06/16 04:37:33;;;;;;;262.85;253.15;;;12.20;74.90;;;;;;5042229;28;20470;-88
2023/06/16 04:39:59;;;;;;;275.00;264.63;;;12.30;74.00;;;;;;5036476;28;20057;-87
2023/06/16 04:42:24;;;;;;;292.60;281.63;;;12.40;72.30;;;;;;5035247;28;20405;-87
2023/06/16 04:44:50;;;;;;;280.75;270.08;;;12.50;71.40;;;;;;5037259;28;20029;-89
2023/06/16 04:47:17;;;;;;;286.70;275.98;;;12.60;71.80;;;;;;5012010;28;20048;-88
2023/06/16 04:49:43;;;;;;;278.50;267.90;;;12.60;71.00;;;;;;5017957;28;20117;-88
2023/06/16 04:52:09;;;;;;;269.17;258.92;;;12.80;71.30;;;;;;5032035;28;20132;-87
2023/06/16 04:54:35;;;;;;;258.55;248.70;;;12.90;71.20;;;;;;5030960;28;20033;-87
2023/06/16 04:57:01;;;;;;;258.92;249.05;;;13.00;71.20;;;;;;5036654;28;20508;-85
2023/06/16 04:59:26;;;;;;;267.88;257.75;;;13.00;71.90;;;;;;5030767;28;20084;-87
2023/06/16 05:01:52;;;;;;;276.10;265.35;;;13.00;70.60;;;;;;5028873;28;20036;-87
2023/06/16 05:04:18;;;;;;;283.98;273.17;;;13.10;70.80;;;;;;5032498;28;20021;-88
2023/06/16 05:06:44;;;;;;;272.45;261.98;;;13.10;71.00;;;;;;5028191;28;20508;-87
2023/06/16 05:09:09;;;;;;;299.23;287.63;;;13.20;73.50;;;;;;5021636;28;20029;-88
2023/06/16 05:11:35;;;;;;;292.05;280.83;;;13.20;72.90;;;;;;5015577;28;20057;-86
2023/06/16 05:14:01;;;;;;;301.80;290.00;;;13.30;72.40;;;;;;5027082;28;20030;-86
2023/06/16 05:16:27;;;;;;;288.83;277.65;;;13.50;72.40;;;;;;5037544;28;20056;-86
2023/06/16 05:18:52;;;;;;;319.23;306.63;;;13.60;71.60;;;;;;5034124;28;20045;-87
2023/06/16 05:21:24;;;;;;;298.38;286.40;;;13.60;73.30;;;;;;5034669;28;20052;-88
2023/06/16 05:23:54;;;;;;;293.35;281.60;;;13.70;71.40;;;;;;5018733;28;20677;-91
2023/06/16 05:26:23;;;;;;;298.55;286.98;;;13.90;72.20;;;;;;5050017;28;20041;-89
2023/06/16 05:28:49;;;;;;;305.33;293.83;;;13.90;70.70;;;;;;5030316;28;20116;-88
2023/06/16 05:31:15;;;;;;;312.55;300.23;;;14.10;70.80;;;;;;5035876;28;20108;-87
2023/06/16 05:33:41;;;;;;;284.35;273.05;;;14.20;69.70;;;;;;5028818;28;20409;-90
2023/06/16 05:36:07;;;;;;;297.40;285.92;;;14.40;68.90;;;;;;5036612;28;20553;-91
2023/06/16 05:38:33;;;;;;;330.33;317.13;;;14.70;69.50;;;;;;5036755;28;20068;-92
2023/06/16 05:40:58;;;;;;;323.38;310.90;;;14.70;70.10;;;;;;5018188;28;20026;-87
2023/06/16 05:43:24;;;;;;;352.17;338.45;;;14.80;69.10;;;;;;5048549;28;20396;-92
2023/06/16 05:45:50;;;;;;;333.65;320.23;;;14.80;69.10;;;;;;5030461;28;20084;-92
2023/06/16 05:48:15;;;;;;;332.80;319.70;;;14.90;67.90;;;;;;5036314;28;20136;-92
2023/06/16 05:50:41;;;;;;;355.25;340.65;;;15.00;67.70;;;;;;5046302;28;20133;-91
2023/06/16 05:53:07;;;;;;;352.00;337.98;;;15.10;66.30;;;;;;5039944;28;20040;-92
2023/06/16 05:55:33;;;;;;;405.38;388.27;;;15.20;66.10;;;;;;5031859;28;20398;-94
2023/06/16 05:58:00;;;;;;;426.27;408.30;;;15.30;65.00;;;;;;5036787;28;20064;-91
2023/06/16 06:00:26;;;;;;;420.75;402.77;;;15.40;64.50;;;;;;5035293;28;20029;-89
2023/06/16 06:02:52;;;;;;;431.52;412.85;;;15.50;65.20;;;;;;5007415;28;20033;-89
2023/06/16 06:05:17;;;;;;;452.17;432.83;;;15.70;63.70;;;;;;5034873;28;20032;-89
2023/06/16 06:07:43;;;;;;;456.20;436.55;;;15.90;64.40;;;;;;5034564;28;20026;-88
2023/06/16 06:10:09;;;;;;;540.08;515.28;;;16.00;63.40;;;;;;5011368;28;20037;-89
2023/06/16 06:12:37;;;;;;;513.83;490.15;;;16.20;62.50;;;;;;5040057;28;20032;-89
2023/06/16 06:15:03;;;;;;;595.25;565.88;;;16.30;62.40;;;;;;5037819;28;20117;-90
2023/06/16 06:17:29;;;;;;;601.15;571.83;;;16.50;61.30;;;;;;5033977;28;20080;-88
2023/06/16 06:19:55;;;;;;;489.13;467.98;;;16.60;60.90;;;;;;5035984;28;20036;-89
2023/06/16 06:22:20;;;;;;;629.03;597.60;;;16.80;64.60;;;;;;5017491;28;20036;-89
2023/06/16 06:24:46;;;;;;;649.05;615.65;;;16.90;59.40;;;;;;5031954;28;20042;-89
2023/06/16 06:27:12;;;;;;;647.38;614.67;;;17.00;59.80;;;;;;5040974;28;20118;-89
2023/06/16 06:29:38;;;;;;;551.60;522.38;;;17.10;57.60;;;;;;5014998;28;20026;-91
2023/06/16 06:32:07;;;;;;;293.15;273.98;;;17.30;55.80;;;;;;5034362;28;20507;-89
2023/06/16 06:34:36;;;;;;;593.33;559.70;;;17.40;55.10;;;;;;5035101;28;20400;-90
2023/06/16 06:37:01;;;;;;;517.55;488.05;;;17.40;57.10;;;;;;5015658;28;20079;-90
2023/06/16 06:39:27;;;;;;;496.88;465.23;;;17.70;57.20;;;;;;5049380;28;20033;-89
2023/06/16 06:41:53;;;;;;;584.65;547.15;;;17.80;56.00;;;;;;5035450;28;20033;-90
2023/06/16 06:44:18;;;;;;;654.60;616.28;;;18.20;56.80;;;;;;5041522;28;20105;-90
2023/06/16 06:46:45;;;;;;;641.17;600.95;;;18.20;58.90;;;;;;5020898;28;20025;-91
2023/06/16 06:49:10;;;;;;;422.23;393.17;;;18.00;57.00;;;;;;5036542;28;20049;-89
2023/06/16 06:51:36;;;;;;;1558.60;804.33;;;18.10;56.10;;;;;;5050077;28;20036;-91
2023/06/16 06:54:02;;;;;;;1999.90;999.90;;;18.20;55.30;;;;;;5045457;28;20397;-90
2023/06/16 06:56:27;;;;;;;1999.90;999.90;;;18.20;55.20;;;;;;5030026;28;20040;-89
2023/06/16 06:58:53;;;;;;;548.90;511.45;;;18.40;56.70;;;;;;5048720;28;20489;-89
2023/06/16 07:01:19;;;;;;;1999.90;999.90;;;18.70;57.50;;;;;;5054668;28;20622;-90
2023/06/16 07:03:45;;;;;;;1999.90;999.90;;;18.80;55.10;;;;;;5035716;28;20042;-90
2023/06/16 07:06:10;;;;;;;588.17;547.38;;;18.90;55.20;;;;;;5037086;28;20029;-90
2023/06/16 07:08:36;;;;;;;1999.90;999.90;;;19.20;56.80;;;;;;5031937;28;20488;-90
2023/06/16 07:11:02;;;;;;;1999.90;999.90;;;19.40;53.80;;;;;;5017658;28;20037;-90
2023/06/16 07:13:28;;;;;;;1999.90;999.90;;;19.60;51.40;;;;;;5035622;28;20029;-91
2023/06/16 07:15:53;;;;;;;1999.90;999.90;;;19.50;51.40;;;;;;5030810;28;20037;-90
2023/06/16 07:18:19;;;;;;;1999.90;999.90;;;19.50;49.10;;;;;;5038328;28;20020;-91
2023/06/16 07:20:45;;;;;;;1999.90;999.90;;;19.50;49.80;;;;;;5035435;28;20049;-89
2023/06/16 07:23:10;;;;;;;1999.90;999.90;;;19.60;51.60;;;;;;5033881;28;20037;-90
2023/06/16 07:25:36;;;;;;;1999.90;999.90;;;19.70;49.70;;;;;;5022840;28;20034;-90
2023/06/16 07:28:04;;;;;;;1999.90;999.90;;;19.90;45.70;;;;;;5040133;28;20148;-90
2023/06/16 07:30:30;;;;;;;1999.90;999.90;;;20.00;44.30;;;;;;5033256;28;20017;-90
2023/06/16 07:32:56;;;;;;;1999.90;999.90;;;20.20;47.40;;;;;;5028256;28;20056;-92
2023/06/16 07:35:22;;;;;;;1999.90;999.90;;;20.30;44.30;;;;;;5037353;28;20033;-90
2023/06/16 07:37:48;;;;;;;1999.90;999.90;;;20.40;42.80;;;;;;5039832;28;20029;-89
2023/06/16 07:40:14;;;;;;;1999.90;999.90;;;20.60;42.20;;;;;;5039086;28;20045;-88
2023/06/16 07:42:45;;;;;;;1999.90;999.90;;;20.60;42.40;;;;;;5039817;28;20116;-89
2023/06/16 07:45:12;;;;;;;1999.90;999.90;;;20.70;41.10;;;;;;5036071;28;20492;-89
2023/06/16 07:47:39;;;;;;;1999.90;999.90;;;20.60;40.70;;;;;;5031715;28;20557;-89
2023/06/16 07:50:07;;;;;;;1999.90;999.90;;;20.60;41.30;;;;;;5021306;28;20412;-91
2023/06/16 07:52:32;;;;;;;1999.90;999.90;;;20.80;40.10;;;;;;5036748;28;20396;-90
2023/06/16 07:54:58;;;;;;;1999.90;999.90;;;20.90;39.20;;;;;;5041221;28;20118;-90
2023/06/16 07:57:24;;;;;;;1999.90;999.90;;;20.90;38.40;;;;;;5035110;28;20036;-90
2023/06/16 07:59:49;;;;;;;1999.90;999.90;;;20.80;37.80;;;;;;5033747;28;20525;-91
2023/06/16 08:02:15;;;;;;;1999.90;999.90;;;20.80;39.20;;;;;;5036551;28;20480;-90
2023/06/16 08:04:41;;;;;;;1999.90;999.90;;;20.80;38.30;;;;;;5024126;28;20035;-91
2023/06/16 08:07:06;;;;;;;1999.90;999.90;;;20.80;38.00;;;;;;5035096;28;20139;-90
2023/06/16 08:09:32;;;;;;;1999.90;999.90;;;21.00;40.10;;;;;;5034725;28;20021;-89
2023/06/16 08:11:58;;;;;;;1999.90;999.90;;;21.20;36.70;;;;;;5035182;28;20116;-90
2023/06/16 08:14:23;;;;;;;1999.90;999.90;;;21.20;37.20;;;;;;5036968;28;20087;-90
2023/06/16 08:16:50;;;;;;;1999.90;999.90;;;21.20;36.90;;;;;;5033289;28;20069;-89
2023/06/16 08:19:15;;;;;;;1999.90;999.90;;;21.30;37.80;;;;;;5041307;28;20049;-89
2023/06/16 08:21:41;;;;;;;1999.90;999.90;;;21.60;36.70;;;;;;5039203;28;20440;-87
2023/06/16 08:24:07;;;;;;;1999.90;999.90;;;21.60;35.70;;;;;;5020725;28;20108;-90
2023/06/16 08:26:32;;;;;;;1999.90;999.90;;;21.70;32.70;;;;;;5031821;28;20026;-89
2023/06/16 08:28:59;;;;;;;1999.90;999.90;;;21.50;33.80;;;;;;5033750;28;20065;-89
2023/06/16 08:31:27;;;;;;;1999.90;999.90;;;21.70;35.50;;;;;;5033242;28;20025;-89
2023/06/16 08:33:54;;;;;;;1999.90;999.90;;;21.80;34.50;;;;;;5040954;28;20427;-89
2023/06/16 08:36:21;;;;;;;1999.90;999.90;;;22.40;34.60;;;;;;5029271;28;20040;-89
2023/06/16 08:38:48;;;;;;;1999.90;999.90;;;22.70;32.70;;;;;;5034958;28;20040;-88
2023/06/16 08:41:16;;;;;;;1999.90;999.90;;;23.00;31.70;;;;;;5016675;28;20057;-89
2023/06/16 08:43:43;;;;;;;1999.90;999.90;;;23.10;29.80;;;;;;5036975;28;20072;-90
2023/06/16 08:46:10;;;;;;;1999.90;999.90;;;23.30;31.40;;;;;;5033786;28;20029;-91
2023/06/16 08:48:37;;;;;;;1999.90;999.90;;;23.50;32.90;;;;;;5030872;28;20403;-91
2023/06/16 08:51:04;;;;;;;1999.90;999.90;;;24.10;31.40;;;;;;5038306;28;20115;-90
2023/06/16 08:53:33;;;;;;;1999.90;999.90;;;25.00;30.40;;;;;;5036320;28;20515;-90
2023/06/16 08:56:03;;;;;;;1999.90;999.90;;;25.00;28.20;;;;;;5035139;28;20040;-90
2023/06/16 08:58:34;;;;;;;1999.90;999.90;;;24.10;30.00;;;;;;5035857;28;20578;-89
2023/06/16 09:01:03;;;;;;;1999.90;999.90;;;24.20;27.80;;;;;;5020481;28;20068;-90
2023/06/16 09:03:32;;;;;;;1999.90;999.90;;;23.80;27.90;;;;;;5032624;28;20053;-90
2023/06/16 09:06:02;;;;;;;1999.90;999.90;;;23.30;29.10;;;;;;5031185;28;20400;-89
2023/06/16 09:08:28;;;;;;;1999.90;999.90;;;23.00;30.40;;;;;;5042614;28;20033;-89
2023/06/16 09:10:55;;;;;;;1999.90;999.90;;;23.30;30.20;;;;;;5036186;28;20374;-91
2023/06/16 09:13:22;;;;;;;1999.90;999.90;;;24.00;32.00;;;;;;5016620;28;20033;-91
2023/06/16 09:15:49;;;;;;;1999.90;999.90;;;23.80;31.20;;;;;;5030974;28;20040;-91
2023/06/16 09:18:15;;;;;;;1999.90;999.90;;;23.10;28.90;;;;;;5034809;28;20037;-90
2023/06/16 09:20:41;;;;;;;1999.90;999.90;;;22.60;29.00;;;;;;5040760;28;20052;-88
2023/06/16 09:23:08;;;;;;;1999.90;999.90;;;22.30;28.20;;;;;;5032220;28;20120;-91
2023/06/16 09:25:38;;;;;;;1999.90;999.90;;;22.50;28.50;;;;;;5037526;28;20503;-91
2023/06/16 09:28:09;;;;;;;1999.90;999.90;;;22.40;29.90;;;;;;5042961;28;20021;-90
2023/06/16 09:30:35;;;;;;;1999.90;999.90;;;23.90;28.30;;;;;;5037880;28;20091;-91
2023/06/16 09:33:05;;;;;;;1999.90;999.90;;;25.00;26.50;;;;;;5031294;28;20032;-91
2023/06/16 09:35:31;;;;;;;1999.90;999.90;;;24.50;27.80;;;;;;5029661;28;20026;-90
2023/06/16 09:38:03;;;;;;;1999.90;999.90;;;23.80;26.00;;;;;;5031607;28;20496;-90
2023/06/16 09:40:30;;;;;;;1999.90;999.90;;;23.80;26.90;;;;;;5031170;28;20059;-89
2023/06/16 09:42:59;;;;;;;1999.90;999.90;;;23.30;27.50;;;;;;5031866;28;20061;-89
2023/06/16 09:45:30;;;;;;;1999.90;999.90;;;23.20;28.70;;;;;;5015016;28;20029;-89
2023/06/16 09:47:59;;;;;;;1999.90;999.90;;;23.20;29.20;;;;;;5033408;28;20033;-89
2023/06/16 09:50:26;;;;;;;1999.90;999.90;;;22.90;28.00;;;;;;5031294;28;20117;-90
2023/06/16 09:52:56;;;;;;;1999.90;999.90;;;22.60;28.70;;;;;;5037140;28;20028;-90
2023/06/16 09:55:26;;;;;;;1999.90;999.90;;;23.30;29.00;;;;;;5031651;28;20079;-90
2023/06/16 09:57:51;;;;;;;;;;;24.20;28.40;;;;;;5035892;28;20040;-91
2023/06/16 10:00:17;;;;;;;1999.90;999.90;;;24.70;27.20;;;;;;5037124;28;19913;-90
2023/06/16 10:02:44;;;;;;;1999.90;999.90;;;24.90;25.80;;;;;;5028414;28;20038;-89
2023/06/16 10:05:16;;;;;;;1999.90;999.90;;;24.60;26.30;;;;;;5017252;28;20406;-89
2023/06/16 10:07:43;;;;;;;1999.90;999.90;;;24.90;25.10;;;;;;5035282;28;20024;-90
2023/06/16 10:10:11;;;;;;;1999.90;999.90;;;25.20;26.80;;;;;;5031091;28;20857;-88
2023/06/16 10:12:41;;;;;;;1999.90;999.90;;;24.20;25.60;;;;;;5038507;28;20083;-89
2023/06/16 10:15:09;;;;;;;1999.90;999.90;;;23.80;26.80;;;;;;5025981;28;20037;-88
2023/06/16 10:17:37;;;;;;;1999.90;999.90;;;23.20;26.20;;;;;;5051986;28;20042;-88
2023/06/16 10:20:09;;;;;;;1999.90;999.90;;;23.50;27.40;;;;;;5033125;28;20029;-90
2023/06/16 10:22:34;;;;;;;1999.90;999.90;;;24.40;29.90;;;;;;5034300;28;20032;-92
2023/06/16 10:25:01;;;;;;;1999.90;999.90;;;24.20;26.00;;;;;;5034965;28;20341;-90
2023/06/16 10:27:27;;;;;;;1999.90;999.90;;;24.30;25.70;;;;;;5033946;28;20065;-91
2023/06/16 10:29:54;;;;;;;1999.90;999.90;;;25.30;23.90;;;;;;5034536;28;20025;-91
2023/06/16 10:32:20;;;;;;;1999.90;999.90;;;25.90;24.80;;;;;;5034633;28;20500;-93
2023/06/16 10:34:49;;;;;;;1999.90;999.90;;;25.90;23.80;;;;;;5031402;28;20428;-92
2023/06/16 10:37:16;;;;;;;1999.90;999.90;;;25.40;24.00;;;;;;5024620;28;20039;-91
2023/06/16 10:39:43;;;;;;;1999.90;999.90;;;25.90;25.00;;;;;;5038557;28;20036;-91
2023/06/16 10:42:12;;;;;;;1999.90;999.90;;;25.80;25.10;;;;;;5028734;28;20033;-94
2023/06/16 10:44:38;;;;;;;1999.90;999.90;;;24.10;24.00;;;;;;5038079;28;20512;-89
2023/06/16 10:47:13;;;;;;;1999.90;999.90;;;23.50;24.70;;;;;;5032570;28;20025;-91
2023/06/16 10:49:55;;;;;;;1999.90;999.90;;;23.20;25.10;;;;;;5031218;28;20072;-90
2023/06/16 10:52:34;;;;;;;1999.90;999.90;;;23.20;24.70;;;;;;5033715;28;20030;-89
2023/06/16 10:55:17;;;;;;;1999.90;999.90;;;23.60;24.80;;;;;;5030716;28;20037;-89
2023/06/16 10:57:44;;;;;;;1999.90;999.90;;;24.90;24.90;;;;;;5033832;28;20729;-89
2023/06/16 11:00:11;;;;;;;1999.90;999.90;;;25.40;22.30;;;;;;5035169;28;20349;-90
2023/06/16 11:02:46;;;;;;;1999.90;999.90;;;26.30;23.10;;;;;;5020758;28;20140;-92
2023/06/16 11:05:12;;;;;;;1999.90;999.90;;;26.60;22.70;;;;;;5041550;28;20405;-91
2023/06/16 11:07:48;;;;;;;1999.90;999.90;;;27.20;21.80;;;;;;5039979;28;20053;-92
2023/06/16 11:10:20;;;;;;;1999.90;999.90;;;27.40;19.70;;;;;;5022854;28;20467;-90
2023/06/16 11:12:46;;;;;;;1999.90;999.90;;;27.00;20.30;;;;;;5032949;28;20037;-92
2023/06/16 11:15:12;;;;;;;1999.90;999.90;;;27.20;20.60;;;;;;5034686;28;20030;-89
2023/06/16 11:17:39;;;;;;;1999.90;999.90;;;28.10;20.00;;;;;;5036443;28;20108;-91
2023/06/16 11:20:06;;;;;;;1999.90;999.90;;;29.10;18.20;;;;;;5068317;28;20400;-89
2023/06/16 11:22:36;;;;;;;1999.90;999.90;;;27.50;17.90;;;;;;5040094;28;20503;-90
2023/06/16 11:25:03;;;;;;;1999.90;999.90;;;26.40;20.00;;;;;;5036010;28;20029;-88
2023/06/16 11:27:30;;;;;;;1999.90;999.90;;;25.30;20.70;;;;;;5038053;28;20111;-89
2023/06/16 11:29:58;;;;;;;1999.90;999.90;;;25.60;20.80;;;;;;5041494;28;20025;-89
2023/06/16 11:32:32;;;;;;;1999.90;999.90;;;26.70;21.10;;;;;;5044349;28;20040;-91
2023/06/16 11:34:59;;;;;;;1999.90;999.90;;;27.30;19.20;;;;;;5042649;28;20044;-89
2023/06/16 11:37:49;;;;;;;1999.90;999.90;;;26.30;20.60;;;;;;5039488;28;20406;-89
2023/06/16 11:40:22;;;;;;;1999.90;999.90;;;25.30;21.00;;;;;;5042462;28;20756;-88
2023/06/16 11:42:58;;;;;;;1999.90;999.90;;;26.00;20.40;;;;;;5040543;28;20033;-88
2023/06/16 11:45:36;;;;;;;1999.90;999.90;;;27.30;20.30;;;;;;5040399;28;20036;-90
2023/06/16 11:48:04;;;;;;;1999.90;999.90;;;28.60;18.10;;;;;;5060840;28;20119;-87
2023/06/16 11:50:30;;;;;;;1999.90;999.90;;;29.10;17.00;;;;;;5058713;28;20021;-89
2023/06/16 11:52:57;;;;;;;1999.90;999.90;;;29.80;17.50;;;;;;5055661;28;20033;-88
2023/06/16 11:55:23;;;;;;;1999.90;999.90;;;28.10;17.90;;;;;;5057612;28;20045;-90
2023/06/16 11:57:49;;;;;;;1999.90;999.90;;;26.90;19.80;;;;;;5059882;28;20024;-91
2023/06/16 12:00:16;;;;;;;1999.90;999.90;;;25.30;20.50;;;;;;5061337;28;20025;-92
2023/06/16 12:02:45;;;;;;;1999.90;999.90;;;25.60;22.40;;;;;;5060936;28;20029;-89
2023/06/16 12:05:21;;;;;;;1999.90;999.90;;;27.20;20.40;;;;;;5054004;28;20037;-89